createdAt,value
2022-09-28T00:00:19.810Z,50.6
2022-09-28T00:05:19.545Z,50.8
2022-09-28T00:10:16.512Z,50.8
2022-09-28T00:15:19.726Z,50.8
2022-09-28T00:20:19.480Z,50.8
2022-09-28T00:25:19.576Z,50.4
2022-09-28T00:30:19.621Z,50.8
2022-09-28T00:35:19.503Z,50.8
2022-09-28T00:40:19.542Z,51.1
2022-09-28T00:45:19.542Z,51.5
2022-09-28T00:50:19.538Z,51.0
2022-09-28T00:55:19.425Z,50.9
2022-09-28T01:00:16.506Z,50.8
2022-09-28T01:05:16.473Z,51.9
2022-09-28T01:10:19.735Z,51.7
2022-09-28T01:15:19.594Z,52.1
2022-09-28T01:20:19.591Z,52.0
2022-09-28T01:25:19.612Z,52.3
2022-09-28T01:30:19.693Z,51.7
2022-09-28T01:35:19.592Z,51.7
2022-09-28T01:40:19.715Z,52.0
2022-09-28T01:45:19.640Z,51.4
2022-09-28T01:50:19.557Z,50.8
2022-09-28T01:55:16.504Z,51.2
2022-09-28T02:00:16.550Z,51.1
2022-09-28T02:05:19.638Z,50.6
2022-09-28T02:10:19.740Z,51.9
2022-09-28T02:15:19.695Z,51.2
2022-09-28T02:20:19.686Z,51.2
2022-09-28T02:25:19.675Z,51.1
2022-09-28T02:30:19.701Z,50.9
2022-09-28T02:35:19.662Z,51.2
2022-09-28T02:40:19.749Z,51.0
2022-09-28T02:45:19.717Z,50.8
2022-09-28T02:50:16.608Z,50.5
2022-09-28T02:55:19.892Z,51.2
2022-09-28T03:00:19.803Z,51.0
2022-09-28T03:05:19.691Z,50.7
2022-09-28T03:10:19.774Z,50.8
2022-09-28T03:15:19.766Z,51.0
2022-09-28T03:20:19.748Z,50.7
2022-09-28T03:25:19.717Z,50.5
2022-09-28T03:30:19.870Z,50.3
2022-09-28T03:35:19.751Z,49.9
2022-09-28T03:40:16.767Z,49.9
2022-09-28T03:45:16.821Z,49.9
2022-09-28T03:50:19.837Z,49.7
2022-09-28T03:55:19.936Z,50.1
2022-09-28T04:00:15.970Z,50.0
2022-09-28T04:05:19.124Z,49.9
2022-09-28T04:10:19.055Z,49.6
2022-09-28T04:15:19.129Z,49.6
2022-09-28T04:20:19.099Z,49.3
2022-09-28T04:25:19.023Z,49.2
2022-09-28T04:30:19.180Z,49.1
2022-09-28T04:35:19.100Z,49.0
2022-09-28T04:40:19.131Z,48.9
2022-09-28T04:45:19.173Z,49.2
2022-09-28T04:50:16.086Z,49.1
2022-09-28T04:55:16.338Z,49.3
2022-09-28T05:00:19.113Z,49.0
2022-09-28T05:05:19.168Z,48.8
2022-09-28T05:10:19.374Z,49.1
2022-09-28T05:15:19.060Z,49.0
2022-09-28T05:20:19.136Z,48.9
2022-09-28T05:25:19.088Z,49.3
2022-09-28T05:30:19.232Z,49.5
2022-09-28T05:35:19.092Z,49.4
2022-09-28T05:40:16.231Z,49.5
2022-09-28T05:45:16.113Z,49.1
2022-09-28T05:50:19.211Z,49.1
2022-09-28T05:55:19.134Z,48.9
2022-09-28T06:00:19.205Z,49.2
2022-09-28T06:05:19.135Z,49.3
2022-09-28T06:10:19.201Z,49.5
2022-09-28T06:15:19.280Z,49.3
2022-09-28T06:20:19.178Z,49.6
2022-09-28T06:25:19.128Z,49.8
2022-09-28T06:30:19.221Z,49.5
2022-09-28T06:35:16.211Z,49.6
2022-09-28T06:40:16.225Z,49.8
2022-09-28T06:45:19.307Z,49.8
2022-09-28T06:50:19.305Z,49.7
2022-09-28T06:55:19.165Z,49.8
2022-09-28T07:00:19.304Z,49.8
2022-09-28T07:05:19.266Z,49.8
2022-09-28T07:10:19.254Z,49.7
2022-09-28T07:15:19.199Z,49.7
2022-09-28T07:20:19.986Z,50.1
2022-09-28T07:25:19.344Z,49.5
2022-09-28T07:30:16.298Z,49.5
2022-09-28T07:35:19.369Z,49.8
2022-09-28T07:40:19.408Z,49.8
2022-09-28T07:45:19.291Z,49.9
2022-09-28T07:50:19.457Z,50.0
2022-09-28T07:55:19.397Z,49.7
2022-09-28T08:00:19.327Z,49.7
2022-09-28T08:05:19.302Z,49.7
2022-09-28T08:10:27.436Z,49.8
2022-09-28T08:15:17.777Z,49.8
2022-09-28T08:20:16.366Z,49.8
2022-09-28T08:25:16.353Z,49.9
2022-09-28T08:30:19.586Z,49.9
2022-09-28T08:35:19.649Z,49.5
2022-09-28T08:40:19.432Z,49.9
2022-09-28T08:45:20.106Z,49.7
2022-09-28T08:50:19.519Z,49.7
2022-09-28T08:55:19.406Z,49.6
2022-09-28T09:00:19.449Z,49.3
2022-09-28T09:05:19.652Z,49.1
2022-09-28T09:10:19.438Z,49.0
2022-09-28T09:15:16.466Z,49.3
2022-09-28T09:20:16.446Z,49.3
2022-09-28T09:25:19.561Z,49.3
2022-09-28T09:30:20.629Z,49.3
2022-09-28T09:35:21.869Z,49.2
2022-09-28T09:40:19.724Z,49.3
2022-09-28T09:45:19.517Z,49.2
2022-09-28T09:50:19.487Z,49.2
2022-09-28T09:55:19.681Z,49.1
2022-09-28T10:00:19.606Z,49.0
2022-09-28T10:05:19.576Z,48.9
2022-09-28T10:10:16.664Z,48.9
2022-09-28T10:15:16.657Z,48.8
2022-09-28T10:20:19.710Z,48.7
2022-09-28T10:25:19.746Z,48.7
2022-09-28T10:30:19.684Z,48.5
2022-09-28T10:35:19.676Z,48.5
2022-09-28T10:40:19.776Z,48.3
2022-09-28T10:45:19.838Z,48.6
2022-09-28T10:50:19.611Z,48.6
2022-09-28T10:55:19.644Z,48.6
2022-09-28T11:00:16.674Z,48.6
2022-09-28T11:05:16.581Z,48.6
2022-09-28T11:10:19.734Z,48.7
2022-09-28T11:15:19.676Z,48.7
2022-09-28T11:20:23.556Z,48.7
2022-09-28T11:25:19.802Z,48.8
2022-09-28T11:30:19.688Z,48.8
2022-09-28T11:35:19.861Z,48.9
2022-09-28T11:40:19.796Z,49.1
2022-09-28T11:45:19.674Z,49.4
2022-09-28T11:50:23.804Z,49.3
2022-09-28T11:55:16.671Z,49.6
2022-09-28T12:00:16.617Z,49.8
2022-09-28T12:05:21.093Z,50.1
2022-09-28T12:10:19.722Z,50.1
2022-09-28T12:15:19.801Z,50.3
2022-09-28T12:20:19.755Z,50.7
2022-09-28T12:25:19.840Z,50.7
2022-09-28T12:30:20.103Z,50.9
2022-09-28T12:35:19.765Z,51.2
2022-09-28T12:40:20.315Z,51.3
2022-09-28T12:45:19.836Z,51.6
2022-09-28T12:50:57.218Z,51.4
2022-09-28T12:55:19.874Z,51.8
2022-09-28T13:00:19.902Z,51.9
2022-09-28T13:05:19.798Z,51.8
2022-09-28T13:10:19.864Z,51.7
2022-09-28T13:15:19.917Z,52.1
2022-09-28T13:20:19.897Z,51.5
2022-09-28T13:25:19.879Z,51.5
2022-09-28T13:30:19.888Z,52.1
2022-09-28T13:35:19.991Z,52.2
2022-09-28T13:40:16.858Z,52.3
2022-09-28T13:45:16.812Z,52.2
2022-09-28T13:50:20.038Z,52.4
2022-09-28T13:55:19.994Z,52.6
2022-09-28T14:00:19.943Z,52.6
2022-09-28T14:05:19.974Z,52.1
2022-09-28T14:10:20.025Z,52.2
2022-09-28T14:15:20.095Z,52.6
2022-09-28T14:20:19.925Z,52.9
2022-09-28T14:25:20.039Z,53.3
2022-09-28T14:30:19.996Z,52.5
2022-09-28T14:35:18.894Z,52.2
2022-09-28T14:40:16.959Z,52.4
2022-09-28T14:45:20.507Z,52.6
2022-09-28T14:50:20.076Z,52.9
2022-09-28T14:55:20.064Z,52.4
2022-09-28T15:00:20.123Z,53.2
2022-09-28T15:05:20.170Z,52.1
2022-09-28T15:10:23.014Z,52.6
2022-09-28T15:15:20.044Z,52.8
2022-09-28T15:20:20.146Z,52.4
2022-09-28T15:25:16.952Z,52.6
2022-09-28T15:30:16.892Z,52.9
2022-09-28T15:35:20.164Z,53.1
2022-09-28T15:40:20.233Z,52.6
2022-09-28T15:45:20.045Z,53.0
2022-09-28T15:50:20.094Z,53.1
2022-09-28T15:55:20.064Z,53.3
2022-09-28T16:00:20.120Z,53.0
2022-09-28T16:05:20.130Z,52.6
2022-09-28T16:10:20.139Z,53.1
2022-09-28T16:15:20.102Z,51.8
2022-09-28T16:20:17.056Z,53.3
2022-09-28T16:25:16.996Z,53.3
2022-09-28T16:30:20.259Z,53.2
2022-09-28T16:35:20.164Z,53.2
2022-09-28T16:40:20.297Z,52.9
2022-09-28T16:45:20.378Z,52.5
2022-09-28T16:50:20.211Z,52.9
2022-09-28T16:55:39.687Z,52.9
2022-09-28T17:00:20.310Z,52.9
2022-09-28T17:05:20.146Z,53.0
2022-09-28T17:10:20.242Z,52.0
2022-09-28T17:15:17.069Z,52.8
2022-09-28T17:20:17.272Z,52.9
2022-09-28T17:25:20.267Z,52.3
2022-09-28T17:30:23.658Z,52.3
2022-09-28T17:35:25.073Z,52.3
2022-09-28T17:40:20.451Z,52.5
2022-09-28T17:45:20.244Z,52.9
2022-09-28T17:50:20.276Z,52.5
2022-09-28T17:55:20.124Z,52.9
2022-09-28T18:00:20.283Z,52.9
2022-09-28T18:05:17.186Z,52.3
2022-09-28T18:10:17.163Z,52.1
2022-09-28T18:15:20.491Z,51.6
2022-09-28T18:20:20.278Z,52.7
2022-09-28T18:25:20.326Z,52.2
2022-09-28T18:30:20.252Z,52.0
2022-09-28T18:35:22.989Z,52.4
2022-09-28T18:40:20.396Z,52.6
2022-09-28T18:45:20.291Z,50.9
2022-09-28T18:50:20.441Z,53.2
2022-09-28T18:55:20.256Z,51.8
2022-09-28T19:00:17.203Z,51.8
2022-09-28T19:05:17.242Z,52.3
2022-09-28T19:10:20.559Z,52.0
2022-09-28T19:15:20.369Z,53.3
2022-09-28T19:20:20.364Z,51.9
2022-09-28T19:25:20.402Z,51.8
2022-09-28T19:30:20.468Z,52.3
2022-09-28T19:35:20.378Z,53.1
2022-09-28T19:40:20.694Z,53.2
2022-09-28T19:45:20.421Z,53.4
2022-09-28T19:50:17.279Z,53.1
2022-09-28T19:55:17.275Z,52.1
2022-09-28T20:00:20.531Z,52.5
2022-09-28T20:05:20.488Z,52.1
2022-09-28T20:10:20.409Z,52.1
2022-09-28T20:15:20.417Z,53.0
2022-09-28T20:20:20.483Z,52.2
2022-09-28T20:25:20.472Z,52.3
2022-09-28T20:30:20.503Z,51.9
2022-09-28T20:35:32.229Z,52.3
2022-09-28T20:40:20.601Z,52.8
2022-09-28T20:45:17.384Z,53.5
2022-09-28T20:50:17.476Z,53.5
2022-09-28T20:55:20.516Z,52.9
2022-09-28T21:00:20.477Z,52.4
2022-09-28T21:05:20.467Z,52.8
2022-09-28T21:10:20.579Z,53.5
2022-09-28T21:15:20.563Z,54.2
2022-09-28T21:20:20.508Z,54.5
2022-09-28T21:25:20.539Z,55.1
2022-09-28T21:30:20.574Z,54.9
2022-09-28T21:35:20.514Z,55.1
2022-09-28T21:40:17.546Z,55.6
2022-09-28T21:45:17.610Z,55.9
2022-09-28T21:50:20.630Z,55.4
2022-09-28T21:55:20.511Z,54.8
2022-09-28T22:00:18.609Z,54.8
2022-09-28T22:05:18.546Z,54.8
2022-09-28T22:10:18.639Z,54.7
2022-09-28T22:15:15.454Z,54.6
2022-09-28T22:20:15.483Z,54.7
2022-09-28T22:25:18.685Z,55.0
2022-09-28T22:30:18.604Z,55.6
2022-09-28T22:35:18.650Z,55.4
2022-09-28T22:40:18.646Z,55.6
2022-09-28T22:45:18.604Z,55.6
2022-09-28T22:50:18.700Z,54.7
2022-09-28T22:55:18.603Z,54.5
2022-09-28T23:00:18.695Z,54.4
2022-09-28T23:05:18.733Z,54.2
2022-09-28T23:10:15.583Z,54.0
2022-09-28T23:15:15.502Z,54.2
2022-09-28T23:20:18.754Z,53.7
2022-09-28T23:25:18.998Z,53.6
2022-09-28T23:30:18.906Z,53.8
2022-09-28T23:35:18.759Z,53.8
2022-09-28T23:40:18.810Z,53.8
2022-09-28T23:45:18.912Z,53.7
2022-09-28T23:50:18.704Z,53.9
2022-09-28T23:55:18.661Z,53.7
